< < Back
Terminal Aerodrome Forecast


Current Version              Previous Versions:   1  2  3  4  5  6  7  8  9  

Terminal Aerodrome Forecast

836
FTUS42 KJAX 011100
TAFSSI
TAF
KSSI 011120Z 0112/0212 21004KT P6SM FEW015 SCT250
     FM011600 14008KT P6SM SCT030 SCT250
     FM020200 17006KT P6SM FEW030 BKN250=

Latest METAR

095
SAUS70 KWBC 021200 RRM
MTRSSI
METAR KSSI 021153Z AUTO 21003KT 10SM CLR 26/23 A3009 RMK AO2 SLP189
T02610233 10272 20256 51020


USA.gov is the U.S. government's official web portal to all federal, state and local government web resources and services.